ADDS TAF Board (Experimental) INFO Settings
IDs: Format: Expanded Condensed

KTPA - Tampa Intl Arpt, FL, US

Issued at 2337 UTC 30 May 2016
Updated at: 0005 UTC 31 May 2016
Time2353Z 31/01Z 31/02Z 31/03Z 31/04Z 31/05Z 31/06Z 31/07Z 31/08Z 31/09Z 31/10Z 31/11Z 31/12Z 31/13Z
Type OBS PRVL PRVL PRVL PRVL PRVL PRVL PRVL PRVL PRVL PRVL PRVL PRVL PRVL
VIS 10 >6 >6 >6 >6 >6 >6 >6 >6 >6 >6 >6 >6 >6
CIG -- -- -- -- -- -- -- -- -- -- -- -- -- --
Cover FEW SCT SCT SCT SCT SCT SCT SCT SCT SCT SCT SCT SCT SCT
FltCat VFR VFR VFR VFR VFR VFR VFR VFR VFR VFR VFR VFR VFR VFR
WX -- -- -- -- -- -- -- -- -- -- -- -- -- --
WDir 280 330 330 VRB VRB VRB VRB VRB VRB VRB VRB VRB VRB VRB
WSpd 7 6 6 4 4 4 4 4 4 4 4 4 4 4
WGst -- -- -- -- -- -- -- -- -- -- -- -- -- --
R01/19
XWnd 7 3 3 VRB VRB VRB VRB VRB VRB VRB VRB VRB VRB VRB
HWnd 1 5 5 VRB VRB VRB VRB VRB VRB VRB VRB VRB VRB VRB
R10/28
XWnd 1 5 5 VRB VRB VRB VRB VRB VRB VRB VRB VRB VRB VRB
HWnd -7 -3 -3 VRB VRB VRB VRB VRB VRB VRB VRB VRB VRB VRB

NOTE: TEMPO conditions in [brackets]. Keep in mind TEMPO conditions might be better (lower impact) than prevailing conditions.

Raw TAF
KTPA 302337Z 3100/3124 33006KT P6SM SCT120
  FM310300 VRB04KT P6SM FEW035 SCT200
  FM311700 26008KT P6SM VCTS FEW040CB SCT150
  FM312100 29010G15KT P6SM FEW050 SCT250


Raw METAR
KTPA 302353Z 28007KT 10SM FEW048 FEW150 29/18 A2996 RMK AO2 SLP143 CB DSNT SE T02940183 10322 20294 53010
KTPA 302253Z 27007KT 10SM FEW045 FEW150 31/18 A2994 RMK AO2 SLP136 CB DSNT NE-E T03060178
KTPA 302153Z 26009KT 10SM FEW040 FEW100 31/18 A2992 RMK AO2 SLP133 CB DSNT NE T03110183

METAR Board
Radar Display
Forecast Discussion

TAF Board Legend

Potential Impact
Threat None Slight Moderate High
Visibility (sm) ≥5.1 5.1>X≥3 3>X≥1 <1
Ceiling (100 ft) ≥30.1 30.1>X≥10 10>X≥5 <5
Wind Speed (kt) <10 10≤X<20 20≤X<30 ≥30
Wind Gust (kt) <15 15≤X<25 25≤X<35 ≥35
Weather No Wx Reported VCTS,-TS,-FZRA,SN TS,FZRA +TS,+FZRA,+SN